Antler, North Dakota
Current Conditions -  °F | °C
As of 1:58 PM on Thursday 29 Jan 2015 (Local Time) from KMIB Reporting Station
Overcast Overcast  
Wind Chill:   Ceiling: 1500
Heat Index: 17°   Visibility: 8mi
Dew Point: 14°   Wind: 6mph
Humidity: 86%   Direction: 10°N
Pressure: 30.48"   Gusts: NA
Location:  48.97°N, 101.28°W
Report Text: KMIB 291958Z AUTO 01005KT 8SM OVC015 M08/M10 A3048 RMK AO2 SNB1906E1932B1933E1938B1939E1955 SLP356 P0000 T10821101 $
Loading
Personal Weather Stations






























Interactive Weather Map New forecast layout! Learn more

10-Day Weather Forecast

Advertisements
Track Severe Weather on mobile